SVA310 HECA-OERK
Flight info
| Callsign | SVA310 |
|---|---|
| Flight time | 2h 19m |
| Altitude | 39000 |
| Route | CVO L315 HGD M872 WEJ L604 GAS G662 SIVIS |
| Aircraft | A333/H-SDE3GHIJ2J3J5M1RVWXY/LB2D1 |
Departure
| Time | 2026-05-07 07:20 |
|---|---|
| Airport | Cairo International Airport (HECA) |
Arrival
| Time | 2026-05-07 09:39 |
|---|---|
| Airport | King Khalid International Airport (OERK) |
| Time | Latitude | Longitude | Altitude | Speed | Heading |
|---|---|---|---|---|---|
| 2026-05-07 06:57 | 30.11052 | 31.40312 | 356 ft | 0 kts | 18° |
| 2026-05-07 07:11 | 30.11048 | 31.40311 | 356 ft | 2 kts | 18° |
| 2026-05-07 07:11 | 30.11030 | 31.40304 | 364 ft | 3 kts | 18° |
| 2026-05-07 07:11 | 30.11011 | 31.40297 | 361 ft | 3 kts | 18° |
| 2026-05-07 07:12 | 30.10995 | 31.40291 | 363 ft | 3 kts | 23° |
| 2026-05-07 07:12 | 30.10980 | 31.40280 | 360 ft | 3 kts | 63° |
| 2026-05-07 07:12 | 30.10976 | 31.40260 | 366 ft | 3 kts | 100° |
| 2026-05-07 07:12 | 30.10981 | 31.40238 | 364 ft | 3 kts | 112° |
| 2026-05-07 07:13 | 30.10988 | 31.40219 | 364 ft | 2 kts | 111° |
| 2026-05-07 07:13 | 30.10989 | 31.40215 | 364 ft | 0 kts | 110° |
| 2026-05-07 07:15 | 30.10989 | 31.40217 | 364 ft | 1 kts | 110° |
| 2026-05-07 07:15 | 30.10982 | 31.40239 | 363 ft | 3 kts | 110° |
| 2026-05-07 07:15 | 30.10975 | 31.40262 | 366 ft | 4 kts | 109° |
| 2026-05-07 07:15 | 30.10962 | 31.40313 | 363 ft | 8 kts | 107° |
| 2026-05-07 07:16 | 30.10944 | 31.40380 | 367 ft | 9 kts | 107° |
| 2026-05-07 07:16 | 30.10925 | 31.40441 | 371 ft | 8 kts | 120° |
| 2026-05-07 07:16 | 30.10875 | 31.40458 | 374 ft | 9 kts | 198° |
| 2026-05-07 07:16 | 30.10815 | 31.40393 | 373 ft | 12 kts | 221° |
| 2026-05-07 07:17 | 30.10762 | 31.40324 | 376 ft | 12 kts | 229° |
| 2026-05-07 07:17 | 30.10696 | 31.40236 | 372 ft | 18 kts | 229° |
| 2026-05-07 07:17 | 30.10601 | 31.40110 | 374 ft | 22 kts | 229° |
| 2026-05-07 07:17 | 30.10499 | 31.39976 | 376 ft | 22 kts | 229° |
| 2026-05-07 07:18 | 30.10396 | 31.39838 | 378 ft | 23 kts | 229° |
| 2026-05-07 07:18 | 30.10291 | 31.39701 | 377 ft | 23 kts | 229° |
| 2026-05-07 07:18 | 30.10181 | 31.39576 | 379 ft | 20 kts | 199° |
| 2026-05-07 07:18 | 30.10082 | 31.39632 | 379 ft | 14 kts | 137° |
| 2026-05-07 07:19 | 30.10025 | 31.39696 | 386 ft | 11 kts | 130° |
| 2026-05-07 07:19 | 30.10003 | 31.39779 | 391 ft | 12 kts | 89° |
| 2026-05-07 07:19 | 30.10009 | 31.39870 | 392 ft | 10 kts | 74° |
| 2026-05-07 07:19 | 30.10031 | 31.39905 | 392 ft | 0 kts | 50° |
| 2026-05-07 07:20 | 30.10099 | 31.39997 | 391 ft | 42 kts | 49° |
| 2026-05-07 07:20 | 30.10419 | 31.40422 | 393 ft | 97 kts | 49° |
| 2026-05-07 07:20 | 30.10971 | 31.41158 | 391 ft | 144 kts | 49° |
| 2026-05-07 07:20 | 30.11666 | 31.42077 | 963 ft | 141 kts | 48° |
| 2026-05-07 07:21 | 30.12329 | 31.42967 | 1483 ft | 154 kts | 48° |
| 2026-05-07 07:21 | 30.13073 | 31.43973 | 1790 ft | 177 kts | 48° |
| 2026-05-07 07:21 | 30.13933 | 31.45131 | 2069 ft | 203 kts | 49° |
| 2026-05-07 07:21 | 30.14913 | 31.46448 | 2359 ft | 230 kts | 49° |
| 2026-05-07 07:22 | 30.15975 | 31.47904 | 2888 ft | 242 kts | 53° |
| 2026-05-07 07:22 | 30.16751 | 31.49649 | 3582 ft | 248 kts | 70° |
| 2026-05-07 07:22 | 30.16900 | 31.51645 | 4333 ft | 256 kts | 95° |
| 2026-05-07 07:22 | 30.16480 | 31.53672 | 5064 ft | 262 kts | 103° |
| 2026-05-07 07:23 | 30.15855 | 31.55679 | 5741 ft | 271 kts | 114° |
| 2026-05-07 07:23 | 30.14732 | 31.57467 | 6419 ft | 281 kts | 132° |
| 2026-05-07 07:23 | 30.13257 | 31.58985 | 7083 ft | 288 kts | 140° |
| 2026-05-07 07:23 | 30.11615 | 31.60343 | 7767 ft | 293 kts | 144° |
| 2026-05-07 07:24 | 30.09878 | 31.61616 | 8495 ft | 298 kts | 147° |
| 2026-05-07 07:24 | 30.08092 | 31.62866 | 9246 ft | 302 kts | 147° |
| 2026-05-07 07:24 | 30.06277 | 31.64130 | 9975 ft | 307 kts | 147° |
| 2026-05-07 07:24 | 30.04459 | 31.65416 | 10477 ft | 318 kts | 147° |
| 2026-05-07 07:25 | 30.00498 | 31.68291 | 11024 ft | 355 kts | 147° |
| 2026-05-07 07:25 | 29.98385 | 31.69847 | 11466 ft | 365 kts | 147° |
| 2026-05-07 07:25 | 29.96227 | 31.71442 | 12056 ft | 371 kts | 147° |
| 2026-05-07 07:26 | 29.94045 | 31.73056 | 12744 ft | 374 kts | 147° |
| 2026-05-07 07:26 | 29.91845 | 31.74684 | 13428 ft | 377 kts | 147° |
| 2026-05-07 07:26 | 29.89620 | 31.76328 | 14013 ft | 383 kts | 148° |
| 2026-05-07 07:26 | 29.87368 | 31.77990 | 14580 ft | 386 kts | 148° |
| 2026-05-07 07:27 | 29.85098 | 31.79663 | 15228 ft | 388 kts | 148° |
| 2026-05-07 07:27 | 29.82820 | 31.81342 | 15886 ft | 389 kts | 148° |
| 2026-05-07 07:27 | 29.80536 | 31.83024 | 16503 ft | 392 kts | 148° |
| 2026-05-07 07:27 | 29.78229 | 31.84722 | 17060 ft | 395 kts | 148° |
| 2026-05-07 07:28 | 29.75898 | 31.86436 | 17610 ft | 399 kts | 149° |
| 2026-05-07 07:28 | 29.73539 | 31.88169 | 18101 ft | 405 kts | 149° |
| 2026-05-07 07:28 | 29.71157 | 31.89918 | 18629 ft | 408 kts | 149° |
| 2026-05-07 07:28 | 29.68759 | 31.91679 | 19144 ft | 410 kts | 149° |
| 2026-05-07 07:29 | 29.66343 | 31.93452 | 19610 ft | 414 kts | 149° |
| 2026-05-07 07:29 | 29.63911 | 31.95236 | 20098 ft | 416 kts | 149° |
| 2026-05-07 07:29 | 29.61470 | 31.97025 | 20659 ft | 417 kts | 149° |
| 2026-05-07 07:29 | 29.59019 | 31.98821 | 21135 ft | 419 kts | 149° |
| 2026-05-07 07:30 | 29.56551 | 32.00628 | 21604 ft | 422 kts | 149° |
| 2026-05-07 07:30 | 29.54064 | 32.02448 | 22065 ft | 425 kts | 148° |
| 2026-05-07 07:30 | 29.51564 | 32.04275 | 22495 ft | 429 kts | 149° |
| 2026-05-07 07:30 | 29.49037 | 32.06122 | 22911 ft | 432 kts | 148° |
| 2026-05-07 07:31 | 29.46501 | 32.07975 | 23443 ft | 433 kts | 148° |
| 2026-05-07 07:31 | 29.43959 | 32.09830 | 23894 ft | 434 kts | 149° |
| 2026-05-07 07:31 | 29.41404 | 32.11694 | 24236 ft | 437 kts | 149° |
| 2026-05-07 07:31 | 29.38835 | 32.13567 | 24607 ft | 439 kts | 149° |
| 2026-05-07 07:32 | 29.36252 | 32.15449 | 24970 ft | 441 kts | 149° |
| 2026-05-07 07:32 | 29.33658 | 32.17338 | 25349 ft | 443 kts | 149° |
| 2026-05-07 07:32 | 29.31052 | 32.19234 | 25719 ft | 445 kts | 149° |
| 2026-05-07 07:32 | 29.28436 | 32.21137 | 26083 ft | 446 kts | 149° |
| 2026-05-07 07:33 | 29.25808 | 32.23047 | 26447 ft | 448 kts | 149° |
| 2026-05-07 07:33 | 29.23169 | 32.24964 | 26803 ft | 450 kts | 149° |
| 2026-05-07 07:33 | 29.20516 | 32.26890 | 27142 ft | 452 kts | 149° |
| 2026-05-07 07:33 | 29.17856 | 32.28819 | 27499 ft | 454 kts | 149° |
| 2026-05-07 07:34 | 29.15181 | 32.30759 | 27825 ft | 456 kts | 149° |
| 2026-05-07 07:34 | 29.12493 | 32.32707 | 28166 ft | 458 kts | 149° |
| 2026-05-07 07:34 | 29.09796 | 32.34660 | 28504 ft | 460 kts | 149° |
| 2026-05-07 07:34 | 29.07084 | 32.36622 | 28808 ft | 463 kts | 149° |
| 2026-05-07 07:35 | 29.05279 | 32.37927 | 29023 ft | 464 kts | 149° |
| 2026-05-07 07:35 | 29.02544 | 32.39904 | 29371 ft | 466 kts | 149° |
| 2026-05-07 07:35 | 28.99799 | 32.41887 | 29721 ft | 468 kts | 149° |
| 2026-05-07 07:35 | 28.97043 | 32.43876 | 29977 ft | 471 kts | 149° |
| 2026-05-07 07:36 | 28.94268 | 32.45879 | 30285 ft | 473 kts | 149° |
| 2026-05-07 07:36 | 28.91482 | 32.47888 | 30556 ft | 475 kts | 149° |
| 2026-05-07 07:36 | 28.88683 | 32.49905 | 30840 ft | 476 kts | 149° |
| 2026-05-07 07:36 | 28.85878 | 32.51925 | 31084 ft | 479 kts | 149° |
| 2026-05-07 07:37 | 28.83056 | 32.53955 | 31337 ft | 480 kts | 149° |
| 2026-05-07 07:37 | 28.80222 | 32.55993 | 31573 ft | 483 kts | 149° |
| 2026-05-07 07:37 | 28.77370 | 32.58042 | 31763 ft | 486 kts | 149° |
| 2026-05-07 07:37 | 28.74505 | 32.60100 | 32123 ft | 485 kts | 149° |
| 2026-05-07 07:38 | 28.71664 | 32.62140 | 32586 ft | 482 kts | 149° |
| 2026-05-07 07:38 | 28.68830 | 32.64174 | 32942 ft | 481 kts | 149° |
| 2026-05-07 07:38 | 28.65999 | 32.66204 | 33309 ft | 480 kts | 149° |
| 2026-05-07 07:38 | 28.63184 | 32.68222 | 33725 ft | 477 kts | 149° |
| 2026-05-07 07:39 | 28.60368 | 32.70237 | 33922 ft | 480 kts | 150° |
| 2026-05-07 07:39 | 28.54666 | 32.74312 | 34269 ft | 483 kts | 150° |
| 2026-05-07 07:39 | 28.51842 | 32.76331 | 34734 ft | 477 kts | 150° |
| 2026-05-07 07:40 | 28.49032 | 32.78340 | 35029 ft | 476 kts | 150° |
| 2026-05-07 07:40 | 28.46227 | 32.80342 | 35215 ft | 477 kts | 151° |
| 2026-05-07 07:40 | 28.43404 | 32.82353 | 35344 ft | 480 kts | 151° |
| 2026-05-07 07:40 | 28.40579 | 32.84366 | 35547 ft | 480 kts | 151° |
| 2026-05-07 07:41 | 28.37752 | 32.86379 | 35822 ft | 479 kts | 150° |
| 2026-05-07 07:41 | 28.34939 | 32.88382 | 36121 ft | 477 kts | 151° |
| 2026-05-07 07:41 | 28.32132 | 32.90380 | 36390 ft | 475 kts | 151° |
| 2026-05-07 07:41 | 28.29339 | 32.92367 | 36700 ft | 473 kts | 152° |
| 2026-05-07 07:42 | 28.26552 | 32.94347 | 36863 ft | 473 kts | 152° |
| 2026-05-07 07:42 | 28.23759 | 32.96329 | 37045 ft | 474 kts | 151° |
| 2026-05-07 07:42 | 28.20968 | 32.98309 | 37268 ft | 472 kts | 152° |
| 2026-05-07 07:42 | 28.18185 | 33.00283 | 37498 ft | 471 kts | 152° |
| 2026-05-07 07:43 | 28.15403 | 33.02254 | 37696 ft | 471 kts | 152° |
| 2026-05-07 07:43 | 28.12623 | 33.04223 | 37870 ft | 472 kts | 152° |
| 2026-05-07 07:43 | 28.09876 | 33.06167 | 38040 ft | 472 kts | 152° |
| 2026-05-07 07:43 | 28.07092 | 33.08136 | 38224 ft | 472 kts | 152° |
| 2026-05-07 07:44 | 28.04311 | 33.10102 | 38402 ft | 471 kts | 152° |
| 2026-05-07 07:44 | 28.01544 | 33.12095 | 38580 ft | 472 kts | 150° |
| 2026-05-07 07:44 | 27.98831 | 33.14199 | 38724 ft | 473 kts | 148° |
| 2026-05-07 07:44 | 27.96158 | 33.16366 | 38856 ft | 473 kts | 148° |
| 2026-05-07 07:45 | 27.93500 | 33.18560 | 38977 ft | 473 kts | 148° |
| 2026-05-07 07:45 | 27.88172 | 33.22960 | 39002 ft | 474 kts | 148° |
| 2026-05-07 07:46 | 27.82827 | 33.27327 | 38995 ft | 474 kts | 148° |
| 2026-05-07 07:46 | 27.77471 | 33.31669 | 38996 ft | 474 kts | 149° |
| 2026-05-07 07:47 | 27.72110 | 33.36000 | 38996 ft | 474 kts | 149° |
| 2026-05-07 07:47 | 27.66748 | 33.40329 | 38993 ft | 474 kts | 149° |
| 2026-05-07 07:48 | 27.61390 | 33.44651 | 38993 ft | 474 kts | 149° |
| 2026-05-07 07:48 | 27.56030 | 33.48969 | 38993 ft | 474 kts | 149° |
| 2026-05-07 07:49 | 27.50666 | 33.53286 | 38990 ft | 474 kts | 149° |
| 2026-05-07 07:49 | 27.45305 | 33.57594 | 38990 ft | 474 kts | 149° |
| 2026-05-07 07:50 | 27.39937 | 33.61901 | 38988 ft | 474 kts | 149° |
| 2026-05-07 07:50 | 27.34573 | 33.66201 | 38988 ft | 474 kts | 149° |
| 2026-05-07 07:51 | 27.29209 | 33.70496 | 38981 ft | 473 kts | 149° |
| 2026-05-07 07:51 | 27.23850 | 33.74782 | 38983 ft | 472 kts | 150° |
| 2026-05-07 07:52 | 27.18876 | 33.79663 | 38996 ft | 482 kts | 134° |
| 2026-05-07 07:52 | 27.16948 | 33.82704 | 38993 ft | 488 kts | 123° |
| 2026-05-07 07:52 | 27.15430 | 33.86127 | 38996 ft | 492 kts | 118° |
| 2026-05-07 07:53 | 27.12797 | 33.93240 | 38994 ft | 495 kts | 115° |
| 2026-05-07 07:53 | 27.10310 | 34.00450 | 38987 ft | 496 kts | 115° |
| 2026-05-07 07:54 | 27.07796 | 34.07658 | 38985 ft | 496 kts | 116° |
| 2026-05-07 07:54 | 27.05243 | 34.14849 | 38978 ft | 496 kts | 116° |
| 2026-05-07 07:55 | 27.02673 | 34.22026 | 38960 ft | 496 kts | 116° |
| 2026-05-07 07:55 | 27.00095 | 34.29202 | 38977 ft | 496 kts | 117° |
| 2026-05-07 07:56 | 26.97514 | 34.36378 | 38981 ft | 496 kts | 117° |
| 2026-05-07 07:56 | 26.94931 | 34.43549 | 38977 ft | 496 kts | 117° |
| 2026-05-07 07:57 | 26.92344 | 34.50719 | 38975 ft | 496 kts | 117° |
| 2026-05-07 07:57 | 26.89752 | 34.57889 | 38974 ft | 497 kts | 117° |
| 2026-05-07 07:58 | 26.87152 | 34.65067 | 38970 ft | 497 kts | 117° |
| 2026-05-07 07:58 | 26.84567 | 34.72193 | 38971 ft | 497 kts | 117° |
| 2026-05-07 07:59 | 26.81960 | 34.79364 | 38967 ft | 498 kts | 118° |
| 2026-05-07 07:59 | 26.79341 | 34.86553 | 38965 ft | 499 kts | 118° |
| 2026-05-07 08:00 | 26.76720 | 34.93740 | 38974 ft | 499 kts | 118° |
| 2026-05-07 08:00 | 26.74097 | 35.00923 | 38963 ft | 499 kts | 119° |
| 2026-05-07 08:01 | 26.71464 | 35.08121 | 38967 ft | 501 kts | 119° |
| 2026-05-07 08:01 | 26.68822 | 35.15329 | 38966 ft | 501 kts | 119° |
| 2026-05-07 08:02 | 26.66178 | 35.22532 | 38964 ft | 501 kts | 119° |
| 2026-05-07 08:02 | 26.63530 | 35.29732 | 38950 ft | 501 kts | 120° |
| 2026-05-07 08:03 | 26.60872 | 35.36941 | 38954 ft | 502 kts | 120° |
| 2026-05-07 08:03 | 26.58210 | 35.44154 | 38957 ft | 502 kts | 120° |
| 2026-05-07 08:04 | 26.55529 | 35.51355 | 38936 ft | 501 kts | 121° |
| 2026-05-07 08:04 | 26.52800 | 35.58516 | 38947 ft | 501 kts | 121° |
| 2026-05-07 08:05 | 26.50061 | 35.65660 | 38945 ft | 501 kts | 121° |
| 2026-05-07 08:05 | 26.47319 | 35.72807 | 38946 ft | 501 kts | 121° |
| 2026-05-07 08:06 | 26.44581 | 35.79947 | 38938 ft | 500 kts | 122° |
| 2026-05-07 08:06 | 26.41844 | 35.87076 | 38941 ft | 500 kts | 122° |
| 2026-05-07 08:07 | 26.39105 | 35.94195 | 38945 ft | 499 kts | 122° |
| 2026-05-07 08:07 | 26.36363 | 36.01310 | 38941 ft | 499 kts | 122° |
| 2026-05-07 08:08 | 26.33616 | 36.08422 | 38939 ft | 499 kts | 122° |
| 2026-05-07 08:08 | 26.30868 | 36.15529 | 38940 ft | 499 kts | 122° |
| 2026-05-07 08:09 | 26.28133 | 36.22586 | 38942 ft | 499 kts | 122° |
| 2026-05-07 08:09 | 26.25377 | 36.29688 | 38936 ft | 499 kts | 122° |
| 2026-05-07 08:10 | 26.22616 | 36.36790 | 38938 ft | 500 kts | 122° |
| 2026-05-07 08:10 | 26.19874 | 36.43908 | 38937 ft | 503 kts | 118° |
| 2026-05-07 08:10 | 26.18873 | 36.47678 | 38937 ft | 514 kts | 109° |
| 2026-05-07 08:11 | 26.18452 | 36.51670 | 38928 ft | 526 kts | 97° |
| 2026-05-07 08:11 | 26.18905 | 36.59867 | 38934 ft | 534 kts | 90° |
| 2026-05-07 08:12 | 26.19777 | 36.68158 | 38948 ft | 536 kts | 88° |
| 2026-05-07 08:12 | 26.20678 | 36.76393 | 38923 ft | 535 kts | 89° |
| 2026-05-07 08:13 | 26.21523 | 36.84570 | 38942 ft | 535 kts | 89° |
| 2026-05-07 08:13 | 26.22339 | 36.92810 | 38942 ft | 535 kts | 89° |
| 2026-05-07 08:14 | 26.23143 | 37.01055 | 38929 ft | 535 kts | 89° |
| 2026-05-07 08:14 | 26.23945 | 37.09307 | 38945 ft | 536 kts | 89° |
| 2026-05-07 08:15 | 26.24744 | 37.17566 | 38949 ft | 536 kts | 89° |
| 2026-05-07 08:15 | 26.25539 | 37.25824 | 38948 ft | 536 kts | 89° |
| 2026-05-07 08:16 | 26.26331 | 37.34089 | 38961 ft | 537 kts | 90° |
| 2026-05-07 08:16 | 26.27117 | 37.42352 | 38955 ft | 536 kts | 90° |
| 2026-05-07 08:17 | 26.27897 | 37.50608 | 38948 ft | 536 kts | 90° |
| 2026-05-07 08:17 | 26.28673 | 37.58882 | 38956 ft | 537 kts | 90° |
| 2026-05-07 08:18 | 26.29446 | 37.67159 | 38954 ft | 536 kts | 90° |
| 2026-05-07 08:18 | 26.30211 | 37.75425 | 38952 ft | 536 kts | 90° |
| 2026-05-07 08:19 | 26.30975 | 37.83708 | 38962 ft | 538 kts | 90° |
| 2026-05-07 08:19 | 26.31738 | 37.92011 | 38978 ft | 538 kts | 90° |
| 2026-05-07 08:20 | 26.32496 | 38.00285 | 38971 ft | 537 kts | 90° |
| 2026-05-07 08:20 | 26.33247 | 38.08584 | 38978 ft | 539 kts | 90° |
| 2026-05-07 08:21 | 26.33997 | 38.16905 | 38983 ft | 539 kts | 90° |
| 2026-05-07 08:21 | 26.34615 | 38.23814 | 38985 ft | 539 kts | 90° |
| 2026-05-07 08:22 | 26.35479 | 38.33543 | 38982 ft | 539 kts | 90° |
| 2026-05-07 08:22 | 26.36088 | 38.40459 | 38983 ft | 539 kts | 90° |
| 2026-05-07 08:23 | 26.36818 | 38.48783 | 38981 ft | 539 kts | 90° |
| 2026-05-07 08:23 | 26.37542 | 38.57105 | 38979 ft | 539 kts | 90° |
| 2026-05-07 08:24 | 26.38261 | 38.65422 | 38976 ft | 539 kts | 90° |
| 2026-05-07 08:24 | 26.38974 | 38.73741 | 38989 ft | 539 kts | 90° |
| 2026-05-07 08:25 | 26.39684 | 38.82065 | 38991 ft | 539 kts | 90° |
| 2026-05-07 08:25 | 26.40388 | 38.90392 | 38969 ft | 539 kts | 90° |
| 2026-05-07 08:26 | 26.41436 | 39.02884 | 38988 ft | 539 kts | 90° |
| 2026-05-07 08:26 | 26.42129 | 39.11210 | 38996 ft | 539 kts | 90° |
| 2026-05-07 08:27 | 26.42816 | 39.19533 | 38987 ft | 539 kts | 90° |
| 2026-05-07 08:27 | 26.43485 | 39.27849 | 38988 ft | 538 kts | 91° |
| 2026-05-07 08:28 | 26.43958 | 39.36157 | 38964 ft | 536 kts | 93° |
| 2026-05-07 08:28 | 26.44341 | 39.44455 | 38987 ft | 535 kts | 93° |
| 2026-05-07 08:29 | 26.44728 | 39.52749 | 38991 ft | 535 kts | 93° |
| 2026-05-07 08:29 | 26.45125 | 39.60982 | 38983 ft | 535 kts | 93° |
| 2026-05-07 08:30 | 26.45529 | 39.69265 | 39019 ft | 535 kts | 93° |
| 2026-05-07 08:30 | 26.45929 | 39.77550 | 38999 ft | 535 kts | 93° |
| 2026-05-07 08:31 | 26.46323 | 39.85841 | 38988 ft | 535 kts | 93° |
| 2026-05-07 08:31 | 26.46711 | 39.94125 | 38990 ft | 534 kts | 93° |
| 2026-05-07 08:32 | 26.47095 | 40.02402 | 38991 ft | 534 kts | 93° |
| 2026-05-07 08:32 | 26.47473 | 40.10682 | 38984 ft | 534 kts | 93° |
| 2026-05-07 08:33 | 26.47847 | 40.18960 | 38982 ft | 534 kts | 93° |
| 2026-05-07 08:33 | 26.48216 | 40.27240 | 38971 ft | 534 kts | 93° |
| 2026-05-07 08:34 | 26.48580 | 40.35519 | 38977 ft | 534 kts | 93° |
| 2026-05-07 08:34 | 26.48940 | 40.43802 | 38976 ft | 534 kts | 93° |
| 2026-05-07 08:35 | 26.49294 | 40.52083 | 38978 ft | 534 kts | 93° |
| 2026-05-07 08:35 | 26.49644 | 40.60362 | 38980 ft | 534 kts | 93° |
| 2026-05-07 08:36 | 26.49989 | 40.68644 | 38993 ft | 534 kts | 93° |
| 2026-05-07 08:36 | 26.50327 | 40.76919 | 38997 ft | 534 kts | 94° |
| 2026-05-07 08:37 | 26.50662 | 40.85200 | 38996 ft | 534 kts | 94° |
| 2026-05-07 08:37 | 26.50991 | 40.93479 | 38996 ft | 534 kts | 94° |
| 2026-05-07 08:38 | 26.51313 | 41.01701 | 39007 ft | 534 kts | 94° |
| 2026-05-07 08:38 | 26.51044 | 41.09897 | 39013 ft | 527 kts | 101° |
| 2026-05-07 08:39 | 26.50508 | 41.18044 | 39012 ft | 526 kts | 102° |
| 2026-05-07 08:39 | 26.49915 | 41.26188 | 39017 ft | 526 kts | 102° |
| 2026-05-07 08:40 | 26.49320 | 41.34325 | 39017 ft | 526 kts | 102° |
| 2026-05-07 08:40 | 26.48731 | 41.42476 | 39020 ft | 527 kts | 102° |
| 2026-05-07 08:41 | 26.48140 | 41.50639 | 39018 ft | 528 kts | 102° |
| 2026-05-07 08:41 | 26.47547 | 41.58803 | 39016 ft | 528 kts | 102° |
| 2026-05-07 08:42 | 26.46945 | 41.66985 | 39035 ft | 529 kts | 102° |
| 2026-05-07 08:42 | 26.46340 | 41.75172 | 39029 ft | 529 kts | 102° |
| 2026-05-07 08:43 | 26.45730 | 41.83350 | 39029 ft | 529 kts | 102° |
| 2026-05-07 08:43 | 26.45113 | 41.91543 | 39032 ft | 530 kts | 102° |
| 2026-05-07 08:44 | 26.44493 | 41.99735 | 39016 ft | 530 kts | 102° |
| 2026-05-07 08:44 | 26.43866 | 42.07936 | 39035 ft | 531 kts | 102° |
| 2026-05-07 08:45 | 26.43234 | 42.16152 | 39041 ft | 532 kts | 102° |
| 2026-05-07 08:45 | 26.42597 | 42.24372 | 39039 ft | 532 kts | 102° |
| 2026-05-07 08:46 | 26.41952 | 42.32613 | 39051 ft | 534 kts | 102° |
| 2026-05-07 08:46 | 26.41303 | 42.40865 | 39024 ft | 534 kts | 102° |
| 2026-05-07 08:47 | 26.40651 | 42.49110 | 39066 ft | 533 kts | 102° |
| 2026-05-07 08:47 | 26.39995 | 42.57342 | 39052 ft | 533 kts | 102° |
| 2026-05-07 08:48 | 26.39332 | 42.65577 | 39051 ft | 532 kts | 102° |
| 2026-05-07 08:48 | 26.38672 | 42.73730 | 39050 ft | 531 kts | 102° |
| 2026-05-07 08:49 | 26.38003 | 42.81928 | 39048 ft | 531 kts | 102° |
| 2026-05-07 08:49 | 26.37329 | 42.90122 | 39043 ft | 530 kts | 102° |
| 2026-05-07 08:50 | 26.36652 | 42.98311 | 39051 ft | 530 kts | 102° |
| 2026-05-07 08:50 | 26.35969 | 43.06499 | 39046 ft | 531 kts | 103° |
| 2026-05-07 08:51 | 26.35278 | 43.14717 | 39039 ft | 533 kts | 103° |
| 2026-05-07 08:51 | 26.34581 | 43.22957 | 39034 ft | 534 kts | 103° |
| 2026-05-07 08:52 | 26.33879 | 43.31209 | 39033 ft | 536 kts | 102° |
| 2026-05-07 08:52 | 26.33526 | 43.35335 | 38824 ft | 534 kts | 102° |
| 2026-05-07 08:52 | 26.33176 | 43.39445 | 38512 ft | 532 kts | 102° |
| 2026-05-07 08:53 | 26.32823 | 43.43549 | 37972 ft | 532 kts | 102° |
| 2026-05-07 08:53 | 26.32467 | 43.47657 | 37460 ft | 532 kts | 102° |
| 2026-05-07 08:53 | 26.32111 | 43.51761 | 36950 ft | 532 kts | 102° |
| 2026-05-07 08:53 | 26.31753 | 43.55863 | 36456 ft | 532 kts | 102° |
| 2026-05-07 08:54 | 26.31396 | 43.59963 | 35971 ft | 530 kts | 102° |
| 2026-05-07 08:54 | 26.31038 | 43.64047 | 35486 ft | 529 kts | 101° |
| 2026-05-07 08:54 | 26.30681 | 43.68118 | 35022 ft | 527 kts | 101° |
| 2026-05-07 08:54 | 26.30324 | 43.72177 | 34550 ft | 525 kts | 101° |
| 2026-05-07 08:55 | 26.29782 | 43.76171 | 34110 ft | 517 kts | 109° |
| 2026-05-07 08:55 | 26.28705 | 43.79943 | 33591 ft | 506 kts | 119° |
| 2026-05-07 08:55 | 26.27284 | 43.83506 | 33066 ft | 502 kts | 121° |
| 2026-05-07 08:55 | 26.25763 | 43.86995 | 32516 ft | 501 kts | 123° |
| 2026-05-07 08:56 | 26.24177 | 43.90460 | 31970 ft | 502 kts | 123° |
| 2026-05-07 08:56 | 26.22565 | 43.93910 | 31395 ft | 501 kts | 123° |
| 2026-05-07 08:56 | 26.20958 | 43.97337 | 30843 ft | 499 kts | 123° |
| 2026-05-07 08:56 | 26.19359 | 44.00759 | 30304 ft | 496 kts | 122° |
| 2026-05-07 08:57 | 26.17777 | 44.04160 | 29691 ft | 493 kts | 122° |
| 2026-05-07 08:57 | 26.16208 | 44.07547 | 29076 ft | 491 kts | 122° |
| 2026-05-07 08:57 | 26.14651 | 44.10917 | 28457 ft | 488 kts | 122° |
| 2026-05-07 08:57 | 26.13103 | 44.14269 | 27869 ft | 485 kts | 122° |
| 2026-05-07 08:58 | 26.11568 | 44.17595 | 27286 ft | 482 kts | 122° |
| 2026-05-07 08:58 | 26.10042 | 44.20897 | 26706 ft | 478 kts | 122° |
| 2026-05-07 08:58 | 26.08526 | 44.24176 | 26154 ft | 475 kts | 122° |
| 2026-05-07 08:58 | 26.07014 | 44.27442 | 25607 ft | 472 kts | 122° |
| 2026-05-07 08:59 | 26.05516 | 44.30673 | 25073 ft | 468 kts | 122° |
| 2026-05-07 08:59 | 26.04030 | 44.33876 | 24548 ft | 465 kts | 122° |
| 2026-05-07 08:59 | 26.02552 | 44.37060 | 24027 ft | 462 kts | 121° |
| 2026-05-07 08:59 | 26.01084 | 44.40221 | 23510 ft | 458 kts | 121° |
| 2026-05-07 09:00 | 25.99628 | 44.43352 | 22900 ft | 454 kts | 121° |
| 2026-05-07 09:00 | 25.98184 | 44.46459 | 22303 ft | 451 kts | 121° |
| 2026-05-07 09:00 | 25.96750 | 44.49539 | 21710 ft | 447 kts | 121° |
| 2026-05-07 09:00 | 25.95327 | 44.52595 | 21141 ft | 443 kts | 121° |
| 2026-05-07 09:01 | 25.93935 | 44.55581 | 20590 ft | 439 kts | 121° |
| 2026-05-07 09:01 | 25.92536 | 44.58581 | 20045 ft | 436 kts | 121° |
| 2026-05-07 09:01 | 25.91147 | 44.61558 | 19501 ft | 432 kts | 121° |
| 2026-05-07 09:01 | 25.89770 | 44.64505 | 18963 ft | 428 kts | 121° |
| 2026-05-07 09:02 | 25.88403 | 44.67429 | 18440 ft | 424 kts | 121° |
| 2026-05-07 09:02 | 25.87049 | 44.70324 | 17871 ft | 421 kts | 121° |
| 2026-05-07 09:02 | 25.85707 | 44.73191 | 17288 ft | 417 kts | 121° |
| 2026-05-07 09:02 | 25.84379 | 44.76022 | 16890 ft | 408 kts | 121° |
| 2026-05-07 09:03 | 25.83086 | 44.78778 | 16643 ft | 396 kts | 121° |
| 2026-05-07 09:03 | 25.81832 | 44.81453 | 16396 ft | 386 kts | 121° |
| 2026-05-07 09:03 | 25.80609 | 44.84058 | 16151 ft | 376 kts | 121° |
| 2026-05-07 09:03 | 25.79417 | 44.86594 | 15995 ft | 364 kts | 121° |
| 2026-05-07 09:04 | 25.78233 | 44.89105 | 15983 ft | 375 kts | 121° |
| 2026-05-07 09:04 | 25.77002 | 44.91709 | 15979 ft | 385 kts | 121° |
| 2026-05-07 09:04 | 25.75757 | 44.94350 | 15979 ft | 387 kts | 121° |
| 2026-05-07 09:04 | 25.74511 | 44.96996 | 15979 ft | 387 kts | 121° |
| 2026-05-07 09:05 | 25.73266 | 44.99639 | 15982 ft | 387 kts | 121° |
| 2026-05-07 09:05 | 25.72019 | 45.02284 | 15980 ft | 387 kts | 121° |
| 2026-05-07 09:05 | 25.70772 | 45.04926 | 15982 ft | 387 kts | 120° |
| 2026-05-07 09:05 | 25.69549 | 45.07520 | 15966 ft | 371 kts | 121° |
| 2026-05-07 09:06 | 25.68380 | 45.10004 | 15924 ft | 355 kts | 121° |
| 2026-05-07 09:06 | 25.67262 | 45.12375 | 15915 ft | 340 kts | 121° |
| 2026-05-07 09:06 | 25.66191 | 45.14646 | 15917 ft | 326 kts | 121° |
| 2026-05-07 09:06 | 25.65161 | 45.16823 | 15918 ft | 322 kts | 122° |
| 2026-05-07 09:07 | 25.64119 | 45.19019 | 15922 ft | 322 kts | 122° |
| 2026-05-07 09:07 | 25.63074 | 45.21222 | 15923 ft | 323 kts | 121° |
| 2026-05-07 09:07 | 25.62027 | 45.23431 | 15932 ft | 324 kts | 121° |
| 2026-05-07 09:07 | 25.60980 | 45.25642 | 15930 ft | 324 kts | 121° |
| 2026-05-07 09:08 | 25.59931 | 45.27855 | 15928 ft | 324 kts | 121° |
| 2026-05-07 09:08 | 25.58882 | 45.30068 | 15927 ft | 325 kts | 121° |
| 2026-05-07 09:08 | 25.57832 | 45.32282 | 15922 ft | 325 kts | 121° |
| 2026-05-07 09:08 | 25.56782 | 45.34496 | 15922 ft | 325 kts | 121° |
| 2026-05-07 09:09 | 25.55732 | 45.36707 | 15919 ft | 325 kts | 121° |
| 2026-05-07 09:09 | 25.54681 | 45.38920 | 15922 ft | 325 kts | 121° |
| 2026-05-07 09:09 | 25.53629 | 45.41134 | 15921 ft | 325 kts | 122° |
| 2026-05-07 09:09 | 25.52576 | 45.43349 | 15919 ft | 326 kts | 122° |
| 2026-05-07 09:10 | 25.51862 | 45.44851 | 15921 ft | 326 kts | 122° |
| 2026-05-07 09:10 | 25.50464 | 45.47788 | 15926 ft | 326 kts | 122° |
| 2026-05-07 09:10 | 25.49751 | 45.49287 | 15924 ft | 326 kts | 122° |
| 2026-05-07 09:10 | 25.48708 | 45.51478 | 15736 ft | 325 kts | 122° |
| 2026-05-07 09:11 | 25.47640 | 45.53720 | 15492 ft | 324 kts | 122° |
| 2026-05-07 09:11 | 25.46606 | 45.55892 | 15257 ft | 323 kts | 122° |
| 2026-05-07 09:11 | 25.45562 | 45.58081 | 15066 ft | 321 kts | 122° |
| 2026-05-07 09:11 | 25.44520 | 45.60264 | 14941 ft | 321 kts | 122° |
| 2026-05-07 09:12 | 25.43480 | 45.62443 | 14826 ft | 320 kts | 122° |
| 2026-05-07 09:12 | 25.42441 | 45.64618 | 14629 ft | 320 kts | 122° |
| 2026-05-07 09:12 | 25.41403 | 45.66790 | 14399 ft | 319 kts | 122° |
| 2026-05-07 09:12 | 25.40371 | 45.68949 | 14161 ft | 317 kts | 122° |
| 2026-05-07 09:13 | 25.39342 | 45.71100 | 13930 ft | 315 kts | 122° |
| 2026-05-07 09:13 | 25.38320 | 45.73237 | 13697 ft | 314 kts | 122° |
| 2026-05-07 09:13 | 25.37300 | 45.75368 | 13439 ft | 313 kts | 122° |
| 2026-05-07 09:13 | 25.36287 | 45.77488 | 13185 ft | 311 kts | 121° |
| 2026-05-07 09:14 | 25.35416 | 45.79683 | 12938 ft | 312 kts | 115° |
| 2026-05-07 09:14 | 25.34688 | 45.81939 | 12697 ft | 311 kts | 113° |
| 2026-05-07 09:14 | 25.33991 | 45.84196 | 12442 ft | 309 kts | 113° |
| 2026-05-07 09:14 | 25.33299 | 45.86443 | 12198 ft | 308 kts | 112° |
| 2026-05-07 09:15 | 25.32607 | 45.88685 | 11960 ft | 309 kts | 112° |
| 2026-05-07 09:15 | 25.31913 | 45.90926 | 11716 ft | 308 kts | 112° |
| 2026-05-07 09:15 | 25.31220 | 45.93157 | 11464 ft | 306 kts | 112° |
| 2026-05-07 09:15 | 25.30532 | 45.95374 | 11233 ft | 304 kts | 113° |
| 2026-05-07 09:16 | 25.29844 | 45.97583 | 11020 ft | 303 kts | 113° |
| 2026-05-07 09:16 | 25.29161 | 45.99776 | 10779 ft | 300 kts | 113° |
| 2026-05-07 09:16 | 25.28485 | 46.01949 | 10545 ft | 298 kts | 113° |
| 2026-05-07 09:16 | 25.27813 | 46.04105 | 10320 ft | 296 kts | 113° |
| 2026-05-07 09:17 | 25.27144 | 46.06247 | 10081 ft | 294 kts | 113° |
| 2026-05-07 09:17 | 25.26478 | 46.08378 | 9957 ft | 293 kts | 113° |
| 2026-05-07 09:17 | 25.25811 | 46.10511 | 9952 ft | 294 kts | 113° |
| 2026-05-07 09:17 | 25.25145 | 46.12640 | 9941 ft | 293 kts | 113° |
| 2026-05-07 09:18 | 25.24481 | 46.14767 | 9951 ft | 293 kts | 113° |
| 2026-05-07 09:18 | 25.23815 | 46.16893 | 9951 ft | 294 kts | 113° |
| 2026-05-07 09:18 | 25.23147 | 46.19024 | 9952 ft | 293 kts | 113° |
| 2026-05-07 09:18 | 25.22483 | 46.21146 | 9950 ft | 292 kts | 113° |
| 2026-05-07 09:19 | 25.21820 | 46.23263 | 9952 ft | 292 kts | 113° |
| 2026-05-07 09:19 | 25.21156 | 46.25379 | 9958 ft | 292 kts | 113° |
| 2026-05-07 09:19 | 25.20492 | 46.27494 | 9957 ft | 292 kts | 113° |
| 2026-05-07 09:19 | 25.19827 | 46.29610 | 9958 ft | 292 kts | 113° |
| 2026-05-07 09:20 | 25.19161 | 46.31730 | 9957 ft | 292 kts | 113° |
| 2026-05-07 09:20 | 25.18495 | 46.33850 | 9961 ft | 292 kts | 113° |
| 2026-05-07 09:20 | 25.17828 | 46.35969 | 9961 ft | 292 kts | 113° |
| 2026-05-07 09:20 | 25.17161 | 46.38088 | 9962 ft | 292 kts | 112° |
| 2026-05-07 09:21 | 25.16496 | 46.40197 | 9961 ft | 290 kts | 113° |
| 2026-05-07 09:21 | 25.15646 | 46.42194 | 9965 ft | 286 kts | 127° |
| 2026-05-07 09:21 | 25.14326 | 46.43787 | 9963 ft | 280 kts | 145° |
| 2026-05-07 09:21 | 25.12704 | 46.44962 | 9965 ft | 279 kts | 151° |
| 2026-05-07 09:22 | 25.11022 | 46.46028 | 9889 ft | 279 kts | 152° |
| 2026-05-07 09:22 | 25.09328 | 46.47084 | 9656 ft | 280 kts | 152° |
| 2026-05-07 09:22 | 25.07637 | 46.48142 | 9401 ft | 279 kts | 152° |
| 2026-05-07 09:22 | 25.05951 | 46.49203 | 9148 ft | 278 kts | 152° |
| 2026-05-07 09:23 | 25.04274 | 46.50265 | 8896 ft | 278 kts | 152° |
| 2026-05-07 09:23 | 25.02599 | 46.51326 | 8664 ft | 277 kts | 151° |
| 2026-05-07 09:23 | 25.00929 | 46.52386 | 8430 ft | 277 kts | 151° |
| 2026-05-07 09:23 | 24.99264 | 46.53444 | 8183 ft | 276 kts | 151° |
| 2026-05-07 09:24 | 24.97627 | 46.54484 | 7943 ft | 275 kts | 151° |
| 2026-05-07 09:24 | 24.95986 | 46.55526 | 7706 ft | 269 kts | 150° |
| 2026-05-07 09:24 | 24.94388 | 46.56540 | 7553 ft | 260 kts | 150° |
| 2026-05-07 09:24 | 24.92846 | 46.57516 | 7439 ft | 251 kts | 150° |
| 2026-05-07 09:25 | 24.91334 | 46.58474 | 7319 ft | 251 kts | 151° |
| 2026-05-07 09:25 | 24.89811 | 46.59437 | 7107 ft | 253 kts | 151° |
| 2026-05-07 09:25 | 24.88288 | 46.60399 | 7004 ft | 252 kts | 151° |
| 2026-05-07 09:25 | 24.86769 | 46.61359 | 6996 ft | 252 kts | 151° |
| 2026-05-07 09:26 | 24.85244 | 46.62320 | 6996 ft | 253 kts | 151° |
| 2026-05-07 09:26 | 24.83718 | 46.63279 | 6993 ft | 252 kts | 151° |
| 2026-05-07 09:26 | 24.82195 | 46.64238 | 6990 ft | 252 kts | 151° |
| 2026-05-07 09:26 | 24.80669 | 46.65202 | 6990 ft | 253 kts | 151° |
| 2026-05-07 09:27 | 24.79142 | 46.66168 | 6992 ft | 253 kts | 151° |
| 2026-05-07 09:27 | 24.77613 | 46.67137 | 6994 ft | 254 kts | 151° |
| 2026-05-07 09:27 | 24.74558 | 46.69061 | 6993 ft | 252 kts | 151° |
| 2026-05-07 09:28 | 24.73031 | 46.70024 | 6991 ft | 254 kts | 150° |
| 2026-05-07 09:28 | 24.71491 | 46.70993 | 6991 ft | 255 kts | 150° |
| 2026-05-07 09:28 | 24.69992 | 46.71936 | 6993 ft | 241 kts | 150° |
| 2026-05-07 09:28 | 24.68561 | 46.72841 | 7001 ft | 235 kts | 150° |
| 2026-05-07 09:29 | 24.67138 | 46.73738 | 6986 ft | 237 kts | 150° |
| 2026-05-07 09:29 | 24.65742 | 46.74618 | 6975 ft | 224 kts | 150° |
| 2026-05-07 09:29 | 24.64426 | 46.75445 | 6975 ft | 214 kts | 150° |
| 2026-05-07 09:29 | 24.63141 | 46.76248 | 6980 ft | 211 kts | 150° |
| 2026-05-07 09:30 | 24.61872 | 46.77043 | 6976 ft | 210 kts | 150° |
| 2026-05-07 09:30 | 24.60599 | 46.77838 | 6979 ft | 211 kts | 150° |
| 2026-05-07 09:30 | 24.59327 | 46.78633 | 6977 ft | 211 kts | 150° |
| 2026-05-07 09:30 | 24.58066 | 46.79462 | 6979 ft | 211 kts | 145° |
| 2026-05-07 09:31 | 24.57004 | 46.80569 | 6979 ft | 211 kts | 128° |
| 2026-05-07 09:31 | 24.56356 | 46.82013 | 6972 ft | 213 kts | 106° |
| 2026-05-07 09:31 | 24.56238 | 46.83631 | 6976 ft | 214 kts | 85° |
| 2026-05-07 09:31 | 24.56664 | 46.85193 | 6976 ft | 215 kts | 67° |
| 2026-05-07 09:32 | 24.57377 | 46.86638 | 6972 ft | 215 kts | 62° |
| 2026-05-07 09:32 | 24.58211 | 46.88010 | 6969 ft | 217 kts | 51° |
| 2026-05-07 09:32 | 24.59378 | 46.89073 | 6971 ft | 221 kts | 30° |
| 2026-05-07 09:32 | 24.60850 | 46.89556 | 6972 ft | 224 kts | 4° |
| 2026-05-07 09:33 | 24.62382 | 46.89329 | 6975 ft | 223 kts | 340° |
| 2026-05-07 09:33 | 24.63780 | 46.88589 | 6976 ft | 224 kts | 330° |
| 2026-05-07 09:33 | 24.65134 | 46.87725 | 6974 ft | 226 kts | 329° |
| 2026-05-07 09:33 | 24.66486 | 46.86847 | 6978 ft | 226 kts | 329° |
| 2026-05-07 09:34 | 24.67842 | 46.85974 | 6983 ft | 226 kts | 329° |
| 2026-05-07 09:34 | 24.69212 | 46.85105 | 6980 ft | 228 kts | 331° |
| 2026-05-07 09:34 | 24.70659 | 46.84391 | 6815 ft | 230 kts | 340° |
| 2026-05-07 09:34 | 24.72169 | 46.83817 | 6569 ft | 227 kts | 342° |
| 2026-05-07 09:35 | 24.73676 | 46.83280 | 6245 ft | 229 kts | 342° |
| 2026-05-07 09:35 | 24.75209 | 46.82736 | 5815 ft | 235 kts | 343° |
| 2026-05-07 09:35 | 24.76793 | 46.82173 | 5349 ft | 242 kts | 343° |
| 2026-05-07 09:35 | 24.78397 | 46.81600 | 5062 ft | 240 kts | 343° |
| 2026-05-07 09:36 | 24.79944 | 46.81046 | 4980 ft | 227 kts | 343° |
| 2026-05-07 09:36 | 24.81416 | 46.80467 | 4899 ft | 224 kts | 335° |
| 2026-05-07 09:36 | 24.82757 | 46.79657 | 4662 ft | 223 kts | 330° |
| 2026-05-07 09:36 | 24.84104 | 46.78817 | 4353 ft | 222 kts | 331° |
| 2026-05-07 09:37 | 24.85433 | 46.77980 | 4084 ft | 217 kts | 332° |
| 2026-05-07 09:37 | 24.86703 | 46.77176 | 3782 ft | 203 kts | 332° |
| 2026-05-07 09:37 | 24.87879 | 46.76430 | 3541 ft | 188 kts | 333° |
| 2026-05-07 09:37 | 24.88986 | 46.75716 | 3249 ft | 181 kts | 333° |
| 2026-05-07 09:38 | 24.90059 | 46.75027 | 2891 ft | 177 kts | 333° |
| 2026-05-07 09:38 | 24.91101 | 46.74375 | 2651 ft | 169 kts | 331° |
| 2026-05-07 09:38 | 24.92092 | 46.73734 | 2411 ft | 160 kts | 332° |
| 2026-05-07 09:38 | 24.93024 | 46.73135 | 2269 ft | 151 kts | 333° |
| 2026-05-07 09:39 | 24.93932 | 46.72572 | 2157 ft | 150 kts | 334° |
| 2026-05-07 09:39 | 24.94832 | 46.71989 | 2047 ft | 145 kts | 341° |
| 2026-05-07 09:39 | 24.95550 | 46.71553 | 2044 ft | 84 kts | 329° |
| 2026-05-07 09:39 | 24.95920 | 46.71292 | 2042 ft | 37 kts | 313° |
| 2026-05-07 09:40 | 24.96002 | 46.71129 | 2041 ft | 14 kts | 283° |
| 2026-05-07 09:40 | 24.95992 | 46.71027 | 2040 ft | 14 kts | 250° |
| 2026-05-07 09:40 | 24.95996 | 46.70938 | 2039 ft | 11 kts | 304° |
| 2026-05-07 09:40 | 24.96059 | 46.70887 | 2043 ft | 12 kts | 330° |
| 2026-05-07 09:41 | 24.96140 | 46.70837 | 2042 ft | 14 kts | 330° |
| 2026-05-07 09:41 | 24.96229 | 46.70780 | 2041 ft | 16 kts | 330° |
| 2026-05-07 09:41 | 24.96331 | 46.70716 | 2042 ft | 17 kts | 330° |
| 2026-05-07 09:41 | 24.96431 | 46.70653 | 2043 ft | 17 kts | 330° |
| 2026-05-07 09:42 | 24.96452 | 46.70559 | 2040 ft | 14 kts | 238° |
| 2026-05-07 09:42 | 24.96405 | 46.70472 | 2043 ft | 13 kts | 240° |
| 2026-05-07 09:42 | 24.96363 | 46.70391 | 2039 ft | 8 kts | 240° |
| 2026-05-07 09:42 | 24.96341 | 46.70353 | 2041 ft | 5 kts | 230° |
| 2026-05-07 09:43 | 24.96308 | 46.70335 | 2040 ft | 5 kts | 195° |
| 2026-05-07 09:43 | 24.96273 | 46.70321 | 2041 ft | 5 kts | 202° |
| 2026-05-07 09:43 | 24.96247 | 46.70309 | 2040 ft | 2 kts | 203° |
| 2026-05-07 09:43 | 24.96234 | 46.70303 | 2038 ft | 2 kts | 203° |
| 2026-05-07 09:44 | 24.96221 | 46.70297 | 2040 ft | 0 kts | 203° |
| 2026-05-07 09:44 | 24.96215 | 46.70294 | 2042 ft | 0 kts | 203° |